Time;durP1;ratioP1;P1;durP2;ratioP2;P2;SDS_P1;SDS_P2;PMS_P1;PMS_P2;Temp;Humidity;BMP_temperature;BMP_pressure;BME280_temperature;BME280_humidity;BME280_pressure;Samples;Min_cycle;Max_cycle;Signal;HPM_P1;HPM_P2
2022/09/10 00:01:42;;;;;;;0.10;0.10;;;;;;;;;;4978908;28;20136;-93
2022/09/10 00:04:13;;;;;;;0.10;0.10;;;;;;;;;;4979241;28;20042;-93
2022/09/10 00:06:40;;;;;;;0.10;0.10;;;;;;;;;;4978698;28;20481;-92
2022/09/10 00:09:06;;;;;;;0.10;0.10;;;;;;;;;;4979393;28;20089;-92
2022/09/10 00:11:33;;;;;;;0.10;0.10;;;;;;;;;;4978704;28;20042;-92
2022/09/10 00:14:14;;;;;;;0.10;0.10;;;;;;;;;;4979416;28;20042;-95
2022/09/10 00:16:48;;;;;;;0.30;0.20;;;;;;;;;;4981357;28;20055;-96
2022/09/10 00:19:14;;;;;;;0.10;0.10;;;;;;;;;;4996138;28;20046;-96
2022/09/10 00:21:43;;;;;;;0.20;0.20;;;;;;;;;;4979776;28;20104;-96
2022/09/10 00:24:09;;;;;;;0.10;0.10;;;;;;;;;;4980138;28;20038;-94
2022/09/10 00:30:27;;;;;;;0.30;0.30;;;;;;;;;;5008370;28;20081;-94
2022/09/10 00:32:56;;;;;;;0.10;0.10;;;;;;;;;;4978894;28;20401;-92
2022/09/10 00:35:22;;;;;;;0.10;0.10;;;;;;;;;;4979078;28;20050;-93
2022/09/10 00:37:49;;;;;;;0.10;0.10;;;;;;;;;;4978641;28;20383;-92
2022/09/10 00:40:15;;;;;;;0.10;0.10;;;;;;;;;;4978642;28;20085;-91
2022/09/10 00:42:42;;;;;;;0.10;0.10;;;;;;;;;;4977923;28;20042;-92
2022/09/10 00:45:18;;;;;;;0.10;0.10;;;;;;;;;;4978623;28;20045;-91
2022/09/10 00:47:46;;;;;;;0.10;0.10;;;;;;;;;;4978260;28;20073;-91
2022/09/10 00:50:15;;;;;;;0.10;0.10;;;;;;;;;;4977729;28;20338;-91
2022/09/10 00:52:41;;;;;;;0.10;0.10;;;;;;;;;;4978994;28;20054;-95
2022/09/10 00:55:08;;;;;;;0.10;0.10;;;;;;;;;;4978553;28;20133;-95
2022/09/10 00:57:34;;;;;;;0.10;0.10;;;;;;;;;;4978781;28;20042;-94
2022/09/10 01:00:02;;;;;;;0.10;0.10;;;;;;;;;;4978757;28;20046;-94
2022/09/10 01:02:28;;;;;;;0.10;0.10;;;;;;;;;;4978773;28;20061;-94
2022/09/10 01:05:00;;;;;;;0.10;0.10;;;;;;;;;;4978579;28;20482;-94
2022/09/10 01:07:27;;;;;;;0.10;0.10;;;;;;;;;;4977796;28;20045;-94
2022/09/10 01:10:05;;;;;;;0.15;0.15;;;;;;;;;;4979167;28;20129;-95
2022/09/10 01:12:41;;;;;;;0.10;0.10;;;;;;;;;;4977722;28;20109;-92
2022/09/10 01:15:08;;;;;;;0.10;0.10;;;;;;;;;;4977942;28;20042;-91
2022/09/10 01:17:44;;;;;;;0.10;0.10;;;;;;;;;;4977367;28;20054;-91
2022/09/10 01:20:28;;;;;;;0.10;0.10;;;;;;;;;;4977418;28;20077;-92
2022/09/10 01:23:04;;;;;;;0.10;0.10;;;;;;;;;;4993472;28;20045;-93
2022/09/10 01:25:37;;;;;;;0.10;0.10;;;;;;;;;;4978356;28;20077;-92
2022/09/10 01:28:07;;;;;;;0.10;0.10;;;;;;;;;;4994487;28;20038;-91
2022/09/10 01:30:39;;;;;;;0.10;0.10;;;;;;;;;;5039013;22;20378;-95
2022/09/10 01:33:05;;;;;;;;;;;;;;;;;;5001116;28;20045;-93
2022/09/10 01:35:37;;;;;;;0.10;0.10;;;;;;;;;;4999956;28;19917;-92
2022/09/10 01:38:06;;;;;;;0.10;0.10;;;;;;;;;;5000520;28;20033;-93
2022/09/10 01:40:33;;;;;;;0.10;0.10;;;;;;;;;;4999908;28;20037;-93
2022/09/10 01:43:03;;;;;;;0.10;0.10;;;;;;;;;;4999934;28;20083;-93
2022/09/10 01:45:32;;;;;;;0.10;0.10;;;;;;;;;;5000376;28;20041;-93
2022/09/10 01:48:08;;;;;;;0.20;0.20;;;;;;;;;;5000009;28;20059;-92
2022/09/10 01:50:38;;;;;;;0.10;0.10;;;;;;;;;;4999786;28;20037;-92
2022/09/10 01:53:19;;;;;;;0.10;0.10;;;;;;;;;;4999972;28;20045;-92
2022/09/10 01:55:56;;;;;;;0.10;0.10;;;;;;;;;;4999266;28;20052;-91
2022/09/10 01:58:25;;;;;;;0.10;0.10;;;;;;;;;;4999219;28;20487;-91
2022/09/10 02:01:10;;;;;;;0.20;0.20;;;;;;;;;;5015534;28;20303;-92
2022/09/10 02:03:38;;;;;;;0.10;0.10;;;;;;;;;;4999649;28;20365;-91
2022/09/10 02:06:04;;;;;;;0.10;0.10;;;;;;;;;;4999243;28;20037;-92
2022/09/10 02:08:30;;;;;;;0.10;0.10;;;;;;;;;;4999101;28;20040;-91
2022/09/10 02:11:00;;;;;;;0.20;0.20;;;;;;;;;;4998652;28;20073;-92
2022/09/10 02:13:27;;;;;;;0.10;0.10;;;;;;;;;;4999311;28;20330;-93
2022/09/10 02:15:53;;;;;;;0.10;0.10;;;;;;;;;;5032475;28;20127;-95
2022/09/10 02:18:25;;;;;;;0.10;0.10;;;;;;;;;;5000573;28;20055;-95
2022/09/10 02:20:54;;;;;;;0.10;0.10;;;;;;;;;;4999697;28;20068;-95
2022/09/10 02:23:30;;;;;;;0.10;0.10;;;;;;;;;;4984046;28;20064;-93
2022/09/10 02:25:59;;;;;;;0.10;0.10;;;;;;;;;;5011179;28;20046;-93
2022/09/10 02:28:26;;;;;;;0.10;0.10;;;;;;;;;;4999345;28;20057;-93
2022/09/10 02:30:53;;;;;;;0.10;0.10;;;;;;;;;;4998709;28;20500;-92
2022/09/10 02:33:27;;;;;;;0.20;0.20;;;;;;;;;;4999832;28;20180;-92
2022/09/10 02:35:54;;;;;;;0.10;0.10;;;;;;;;;;4998892;28;20041;-93
2022/09/10 02:38:20;;;;;;;0.10;0.10;;;;;;;;;;4998764;28;20053;-91
2022/09/10 02:40:50;;;;;;;0.10;0.10;;;;;;;;;;5015012;28;20045;-92
2022/09/10 02:43:17;;;;;;;0.10;0.10;;;;;;;;;;4999313;28;20037;-91
2022/09/10 02:45:43;;;;;;;0.10;0.10;;;;;;;;;;4999148;28;20034;-93
2022/09/10 02:48:22;;;;;;;0.10;0.10;;;;;;;;;;4999452;28;20041;-94
2022/09/10 02:50:49;;;;;;;0.20;0.20;;;;;;;;;;4999294;28;20056;-92
2022/09/10 02:53:15;;;;;;;0.10;0.10;;;;;;;;;;4998521;28;20061;-93
2022/09/10 02:55:44;;;;;;;0.10;0.10;;;;;;;;;;4998284;28;20041;-91
2022/09/10 02:58:12;;;;;;;0.10;0.10;;;;;;;;;;4998175;28;20187;-91
2022/09/10 03:00:38;;;;;;;0.20;0.20;;;;;;;;;;4998069;28;20037;-92
2022/09/10 03:03:05;;;;;;;0.20;0.20;;;;;;;;;;4998439;28;20077;-92
2022/09/10 03:05:31;;;;;;;0.10;0.10;;;;;;;;;;4998414;28;20049;-91
2022/09/10 03:07:59;;;;;;;0.10;0.10;;;;;;;;;;4998388;28;20393;-92
2022/09/10 03:10:25;;;;;;;0.10;0.10;;;;;;;;;;4998156;28;20104;-92
2022/09/10 03:12:52;;;;;;;0.10;0.10;;;;;;;;;;4997998;28;20554;-92
2022/09/10 03:15:43;;;;;;;0.10;0.10;;;;;;;;;;4998726;28;20049;-96
2022/09/10 03:18:09;;;;;;;0.10;0.10;;;;;;;;;;5001146;28;20063;-96
2022/09/10 03:20:40;;;;;;;0.10;0.10;;;;;;;;;;4999649;28;20054;-96
2022/09/10 03:23:07;;;;;;;0.10;0.10;;;;;;;;;;5003515;28;20385;-96
2022/09/10 03:25:39;;;;;;;0.10;0.10;;;;;;;;;;5001759;28;20048;-96
2022/09/10 03:28:05;;;;;;;0.10;0.10;;;;;;;;;;5001994;28;20067;-96
2022/09/10 03:30:32;;;;;;;0.10;0.10;;;;;;;;;;5018421;28;20153;-96
2022/09/10 03:33:01;;;;;;;0.10;0.10;;;;;;;;;;5003956;28;20141;-96
2022/09/10 03:35:36;;;;;;;0.13;0.13;;;;;;;;;;5003208;28;20144;-96
2022/09/10 03:38:06;;;;;;;0.10;0.10;;;;;;;;;;5003744;28;20050;-96
2022/09/10 03:40:33;;;;;;;0.10;0.10;;;;;;;;;;5005556;28;20071;-96
2022/09/10 03:43:04;;;;;;;0.10;0.10;;;;;;;;;;5022482;28;20088;-96
2022/09/10 03:45:30;;;;;;;0.10;0.10;;;;;;;;;;5003614;28;20030;-96
2022/09/10 03:47:56;;;;;;;0.10;0.10;;;;;;;;;;5003124;28;20132;-96
2022/09/10 03:50:22;;;;;;;0.17;0.17;;;;;;;;;;5003125;28;20072;-96
2022/09/10 03:52:49;;;;;;;0.10;0.10;;;;;;;;;;5003525;28;20041;-96
2022/09/10 03:55:16;;;;;;;0.10;0.10;;;;;;;;;;5002780;28;20049;-95
2022/09/10 03:57:45;;;;;;;0.10;0.10;;;;;;;;;;5019902;28;20108;-95
2022/09/10 04:00:26;;;;;;;0.10;0.10;;;;;;;;;;5018994;28;20049;-96
2022/09/10 04:02:52;;;;;;;0.10;0.10;;;;;;;;;;5002899;28;20041;-95
2022/09/10 04:05:19;;;;;;;0.10;0.10;;;;;;;;;;5002403;28;20124;-95
2022/09/10 04:07:45;;;;;;;0.10;0.10;;;;;;;;;;5002287;28;20050;-91
2022/09/10 04:10:12;;;;;;;0.20;0.20;;;;;;;;;;5001658;28;20099;-92
2022/09/10 04:12:38;;;;;;;0.10;0.10;;;;;;;;;;5001657;28;20041;-91
2022/09/10 04:15:04;;;;;;;0.10;0.10;;;;;;;;;;5001166;28;20041;-92
2022/09/10 04:17:32;;;;;;;0.20;0.20;;;;;;;;;;5017989;28;20099;-92
2022/09/10 04:19:58;;;;;;;0.10;0.10;;;;;;;;;;5017053;28;20080;-92
2022/09/10 04:22:24;;;;;;;0.30;0.30;;;;;;;;;;5001153;28;20054;-92
2022/09/10 04:24:50;;;;;;;0.10;0.10;;;;;;;;;;5001051;28;20041;-91
2022/09/10 04:27:16;;;;;;;0.10;0.10;;;;;;;;;;5001025;28;20041;-91
2022/09/10 04:29:42;;;;;;;0.10;0.10;;;;;;;;;;5001008;28;20084;-91
2022/09/10 04:32:09;;;;;;;0.20;0.20;;;;;;;;;;4984644;28;20053;-92
2022/09/10 04:34:35;;;;;;;0.10;0.10;;;;;;;;;;5000890;28;20053;-92
2022/09/10 04:37:01;;;;;;;0.10;0.10;;;;;;;;;;5001264;28;20049;-93
2022/09/10 04:39:47;;;;;;;0.10;0.10;;;;;;;;;;5001313;28;20539;-94
2022/09/10 04:42:14;;;;;;;0.10;0.10;;;;;;;;;;5000355;28;20492;-94
2022/09/10 04:44:40;;;;;;;0.10;0.10;;;;;;;;;;5001795;28;20037;-94
2022/09/10 04:47:06;;;;;;;0.10;0.10;;;;;;;;;;5001246;28;20042;-94
2022/09/10 04:49:32;;;;;;;0.20;0.20;;;;;;;;;;5001658;28;20052;-92
2022/09/10 04:51:59;;;;;;;0.10;0.10;;;;;;;;;;5033542;28;20471;-92
2022/09/10 04:54:25;;;;;;;0.10;0.10;;;;;;;;;;5001086;28;20068;-93
2022/09/10 04:56:56;;;;;;;0.10;0.10;;;;;;;;;;5000869;28;20091;-93
2022/09/10 04:59:28;;;;;;;0.10;0.10;;;;;;;;;;5033564;28;20049;-92
2022/09/10 05:01:54;;;;;;;0.10;0.10;;;;;;;;;;5000532;28;20052;-93
2022/09/10 05:04:20;;;;;;;0.10;0.10;;;;;;;;;;5000803;28;20042;-93
2022/09/10 05:06:49;;;;;;;0.10;0.10;;;;;;;;;;5001172;28;20132;-93
2022/09/10 05:09:15;;;;;;;0.10;0.10;;;;;;;;;;5001167;28;20041;-95
2022/09/10 05:11:41;;;;;;;0.10;0.10;;;;;;;;;;5001251;28;20045;-94
2022/09/10 05:14:13;;;;;;;0.10;0.10;;;;;;;;;;5000774;28;20519;-94
2022/09/10 05:16:39;;;;;;;0.10;0.10;;;;;;;;;;5001107;28;20044;-92
2022/09/10 05:19:07;;;;;;;0.10;0.10;;;;;;;;;;4999820;28;20045;-93
2022/09/10 05:21:33;;;;;;;0.10;0.10;;;;;;;;;;5000042;28;20535;-92
2022/09/10 05:24:03;;;;;;;0.10;0.10;;;;;;;;;;5000466;28;20041;-93
2022/09/10 05:26:31;;;;;;;0.10;0.10;;;;;;;;;;5002172;28;20037;-93
2022/09/10 05:29:07;;;;;;;0.10;0.10;;;;;;;;;;5017403;28;20033;-93
2022/09/10 05:31:34;;;;;;;0.10;0.10;;;;;;;;;;4999962;28;20057;-93
2022/09/10 05:34:00;;;;;;;0.10;0.10;;;;;;;;;;5000407;28;20491;-92
2022/09/10 05:36:32;;;;;;;0.20;0.20;;;;;;;;;;4999835;28;20044;-92
2022/09/10 05:38:59;;;;;;;0.30;0.30;;;;;;;;;;4999605;28;20041;-92
2022/09/10 05:41:27;;;;;;;0.10;0.10;;;;;;;;;;4999997;28;20056;-91
2022/09/10 05:43:56;;;;;;;0.20;0.20;;;;;;;;;;5000108;28;20041;-93
2022/09/10 05:46:23;;;;;;;0.10;0.10;;;;;;;;;;5000181;28;20037;-93
2022/09/10 05:48:49;;;;;;;0.10;0.10;;;;;;;;;;4999957;28;20495;-92
2022/09/10 05:51:16;;;;;;;0.10;0.10;;;;;;;;;;5000545;28;20041;-93
2022/09/10 05:53:42;;;;;;;0.10;0.10;;;;;;;;;;5001509;28;20080;-92
2022/09/10 05:56:13;;;;;;;0.10;0.10;;;;;;;;;;5004152;28;20034;-94
2022/09/10 05:58:40;;;;;;;0.10;0.10;;;;;;;;;;5003851;28;20045;-92
2022/09/10 06:01:06;;;;;;;0.10;0.10;;;;;;;;;;5002141;28;20329;-93
2022/09/10 06:03:33;;;;;;;0.10;0.10;;;;;;;;;;5002932;28;20065;-90
2022/09/10 06:06:00;;;;;;;0.10;0.10;;;;;;;;;;5004451;28;20060;-93
2022/09/10 06:08:26;;;;;;;0.10;0.10;;;;;;;;;;5019680;28;20061;-93
2022/09/10 06:10:56;;;;;;;0.10;0.10;;;;;;;;;;5020472;28;20029;-92
2022/09/10 06:13:23;;;;;;;0.10;0.10;;;;;;;;;;5014962;28;20057;-94
2022/09/10 06:15:51;;;;;;;0.10;0.10;;;;;;;;;;5010812;28;20095;-93
2022/09/10 06:18:20;;;;;;;0.10;0.10;;;;;;;;;;5000542;28;20077;-93
2022/09/10 06:20:47;;;;;;;0.10;0.10;;;;;;;;;;5000868;28;20484;-94
2022/09/10 06:23:17;;;;;;;0.10;0.10;;;;;;;;;;4999787;28;20044;-94
2022/09/10 06:25:43;;;;;;;0.17;0.17;;;;;;;;;;4999736;28;20075;-93
2022/09/10 06:28:10;;;;;;;0.10;0.10;;;;;;;;;;4998933;28;20056;-92
2022/09/10 06:30:36;;;;;;;0.10;0.10;;;;;;;;;;4998827;28;20037;-92
2022/09/10 06:33:03;;;;;;;0.10;0.10;;;;;;;;;;4998691;28;20045;-92
2022/09/10 06:35:30;;;;;;;0.10;0.10;;;;;;;;;;4998799;28;20041;-92
2022/09/10 06:37:57;;;;;;;0.10;0.10;;;;;;;;;;4998594;28;20060;-89
2022/09/10 06:40:26;;;;;;;0.20;0.20;;;;;;;;;;4997986;28;20041;-90
2022/09/10 06:42:52;;;;;;;0.10;0.10;;;;;;;;;;4998264;28;20041;-89
2022/09/10 06:45:18;;;;;;;0.10;0.10;;;;;;;;;;4998488;28;20087;-90
2022/09/10 06:47:45;;;;;;;0.30;0.30;;;;;;;;;;4998585;28;20128;-91
2022/09/10 06:50:11;;;;;;;0.10;0.10;;;;;;;;;;4997903;28;20417;-90
2022/09/10 06:52:38;;;;;;;0.30;0.30;;;;;;;;;;4998511;28;20040;-91
2022/09/10 06:55:05;;;;;;;0.10;0.10;;;;;;;;;;5012770;28;20049;-93
2022/09/10 06:57:31;;;;;;;0.10;0.10;;;;;;;;;;4998402;28;20508;-92
2022/09/10 06:59:57;;;;;;;0.20;0.20;;;;;;;;;;4997942;28;20033;-92
2022/09/10 07:02:24;;;;;;;0.10;0.10;;;;;;;;;;5014887;28;20045;-90
2022/09/10 07:04:50;;;;;;;0.20;0.20;;;;;;;;;;4981145;28;20087;-89
2022/09/10 07:07:16;;;;;;;0.20;0.13;;;;;;;;;;4998391;28;20041;-92
2022/09/10 07:09:44;;;;;;;0.10;0.10;;;;;;;;;;4999144;28;20528;-92
2022/09/10 07:12:11;;;;;;;0.10;0.10;;;;;;;;;;4998970;28;20045;-94
2022/09/10 07:14:37;;;;;;;0.10;0.10;;;;;;;;;;4998732;28;20041;-92
2022/09/10 07:17:03;;;;;;;0.10;0.10;;;;;;;;;;4998783;28;20499;-92
2022/09/10 07:19:30;;;;;;;0.20;0.20;;;;;;;;;;4998132;28;20053;-88
2022/09/10 07:21:56;;;;;;;0.10;0.10;;;;;;;;;;4997944;28;20052;-88
2022/09/10 07:24:22;;;;;;;0.10;0.10;;;;;;;;;;4998002;28;20041;-89
2022/09/10 07:26:55;;;;;;;0.20;0.20;;;;;;;;;;4998380;28;20076;-95
2022/09/10 07:29:22;;;;;;;0.10;0.10;;;;;;;;;;4999147;28;20132;-90
2022/09/10 07:31:48;;;;;;;0.10;0.10;;;;;;;;;;4997639;28;20183;-92
2022/09/10 07:34:14;;;;;;;0.10;0.10;;;;;;;;;;4981876;28;20514;-91
2022/09/10 07:36:42;;;;;;;0.10;0.10;;;;;;;;;;4982089;28;20132;-93
2022/09/10 07:39:11;;;;;;;0.10;0.10;;;;;;;;;;4998953;28;20041;-93
2022/09/10 07:41:40;;;;;;;0.15;0.15;;;;;;;;;;4983252;28;20041;-93
2022/09/10 07:44:06;;;;;;;0.13;0.13;;;;;;;;;;4999376;28;20048;-94
2022/09/10 07:46:32;;;;;;;0.10;0.10;;;;;;;;;;4983710;28;20042;-94
2022/09/10 07:48:58;;;;;;;0.15;0.15;;;;;;;;;;4983042;28;20052;-94
2022/09/10 07:51:25;;;;;;;0.28;0.17;;;;;;;;;;5025692;23;20048;-93
2022/09/10 07:53:53;;;;;;;0.10;0.10;;;;;;;;;;5001627;28;20045;-94
2022/09/10 07:56:30;;;;;;;0.32;0.32;;;;;;;;;;5002247;28;20452;-94
2022/09/10 07:58:56;;;;;;;0.10;0.10;;;;;;;;;;5018677;28;20060;-94
2022/09/10 08:01:22;;;;;;;0.10;0.10;;;;;;;;;;5014256;28;20483;-91
2022/09/10 08:03:48;;;;;;;1.35;0.30;;;;;;;;;;5000993;28;20033;-91
2022/09/10 08:06:14;;;;;;;0.10;0.10;;;;;;;;;;5017304;28;20071;-92
2022/09/10 08:08:42;;;;;;;0.13;0.13;;;;;;;;;;5000730;28;20159;-92
2022/09/10 08:11:12;;;;;;;0.10;0.10;;;;;;;;;;5001100;28;20432;-91
2022/09/10 08:13:40;;;;;;;0.25;0.25;;;;;;;;;;5000539;28;20045;-87
2022/09/10 08:16:09;;;;;;;0.17;0.17;;;;;;;;;;5001920;28;20056;-88
2022/09/10 08:18:46;;;;;;;0.20;0.20;;;;;;;;;;5021730;28;20070;-94
2022/09/10 08:21:12;;;;;;;0.10;0.10;;;;;;;;;;5021401;28;20037;-89
2022/09/10 08:23:38;;;;;;;0.10;0.10;;;;;;;;;;5020562;28;20044;-89
2022/09/10 08:26:07;;;;;;;0.20;0.20;;;;;;;;;;5004711;28;20127;-92
2022/09/10 08:28:33;;;;;;;0.17;0.17;;;;;;;;;;5020563;28;20052;-91
2022/09/10 08:31:10;;;;;;;1.48;1.30;;;;;;;;;;5004097;28;20071;-92
2022/09/10 08:33:38;;;;;;;0.10;0.10;;;;;;;;;;5004847;28;20135;-92
2022/09/10 08:36:05;;;;;;;0.10;0.10;;;;;;;;;;5004130;28;20128;-91
2022/09/10 08:38:32;;;;;;;0.10;0.10;;;;;;;;;;5003610;28;20045;-92
2022/09/10 08:40:58;;;;;;;0.13;0.13;;;;;;;;;;5006070;28;20037;-93
2022/09/10 08:43:37;;;;;;;0.63;0.63;;;;;;;;;;5024040;28;20324;-91
2022/09/10 08:46:06;;;;;;;0.10;0.10;;;;;;;;;;5024701;28;20033;-91
2022/09/10 08:48:34;;;;;;;0.10;0.10;;;;;;;;;;5023235;28;20037;-92
2022/09/10 08:51:03;;;;;;;0.10;0.10;;;;;;;;;;5019671;28;20053;-92
2022/09/10 08:54:01;;;;;;;0.10;0.10;;;;;;;;;;5007858;28;20504;-94
2022/09/10 08:56:30;;;;;;;0.60;0.30;;;;;;;;;;5020848;28;20063;-95
2022/09/10 08:59:16;;;;;;;0.38;0.38;;;;;;;;;;5004132;28;20048;-94
2022/09/10 09:01:50;;;;;;;0.20;0.20;;;;;;;;;;5078680;23;20080;-95
2022/09/10 09:04:18;;;;;;;0.10;0.10;;;;;;;;;;5022227;28;20037;-93
2022/09/10 09:06:45;;;;;;;0.10;0.10;;;;;;;;;;5020627;28;20098;-93
2022/09/10 09:12:36;;;;;;;0.10;0.10;;;;;;;;;;5073994;28;20048;-93
2022/09/10 09:15:16;;;;;;;0.10;0.10;;;;;;;;;;5024133;28;20372;-95
2022/09/10 09:28:13;;;;;;;0.10;0.10;;;;;;;;;;6209415;22;20421;-96
2022/09/10 09:36:18;;;;;;;0.20;0.20;;;;;;;;;;5285565;22;20053;-93
2022/09/10 09:38:45;;;;;;;0.10;0.10;;;;;;;;;;5039539;28;20048;-94
2022/09/10 09:44:53;;;;;;;0.10;0.10;;;;;;;;;;5076985;28;20056;-94
2022/09/10 09:47:22;;;;;;;0.10;0.10;;;;;;;;;;5039676;28;20047;-94
2022/09/10 09:49:50;;;;;;;0.10;0.10;;;;;;;;;;5025767;28;20052;-95
2022/09/10 09:52:19;;;;;;;0.10;0.10;;;;;;;;;;5025072;28;20037;-94
2022/09/10 09:54:59;;;;;;;0.10;0.10;;;;;;;;;;5016474;28;20040;-94
2022/09/10 09:57:26;;;;;;;0.10;0.10;;;;;;;;;;5019960;28;20037;-94
2022/09/10 09:59:52;;;;;;;0.10;0.10;;;;;;;;;;5006301;28;20076;-92
2022/09/10 10:02:22;;;;;;;0.10;0.10;;;;;;;;;;5002429;28;20044;-93
2022/09/10 10:05:13;;;;;;;0.10;0.10;;;;;;;;;;5022699;28;20116;-96
2022/09/10 10:07:41;;;;;;;0.10;0.10;;;;;;;;;;5036653;28;20040;-94
2022/09/10 10:15:11;;;;;;;0.10;0.10;;;;;;;;;;5295835;23;20066;-96
2022/09/10 10:17:57;;;;;;;0.20;0.20;;;;;;;;;;5034910;28;20044;-96
2022/09/10 10:20:35;;;;;;;0.10;0.10;;;;;;;;;;5064835;28;20056;-96
2022/09/10 10:23:30;;;;;;;0.10;0.10;;;;;;;;;;5078344;28;20056;-96
2022/09/10 10:26:04;;;;;;;0.40;0.40;;;;;;;;;;5042443;28;20063;-96
2022/09/10 10:28:30;;;;;;;0.43;0.43;;;;;;;;;;5023922;28;20383;-92
2022/09/10 10:30:59;;;;;;;0.20;0.20;;;;;;;;;;5107107;23;20053;-93
2022/09/10 10:33:31;;;;;;;0.20;0.20;;;;;;;;;;5037819;28;20421;-94
2022/09/10 10:36:02;;;;;;;0.20;0.20;;;;;;;;;;5031768;28;20041;-95
2022/09/10 10:38:29;;;;;;;0.10;0.10;;;;;;;;;;5032390;28;20040;-94
2022/09/10 10:41:16;;;;;;;0.10;0.10;;;;;;;;;;5020798;28;20037;-94
2022/09/10 10:44:02;;;;;;;0.10;0.10;;;;;;;;;;5054551;28;20472;-94
2022/09/10 10:46:33;;;;;;;0.10;0.10;;;;;;;;;;5054546;28;20456;-94
2022/09/10 10:49:11;;;;;;;0.10;0.10;;;;;;;;;;5037970;28;20036;-96
2022/09/10 10:51:43;;;;;;;0.10;0.10;;;;;;;;;;5055209;28;20055;-93
2022/09/10 11:04:47;;;;;;;0.10;0.10;;;;;;;;;;5076824;28;20536;-96
2022/09/10 11:07:17;;;;;;;0.20;0.20;;;;;;;;;;5059623;28;20040;-94
2022/09/10 11:09:44;;;;;;;0.20;0.20;;;;;;;;;;5040892;28;20124;-96
2022/09/10 11:12:24;;;;;;;0.20;0.20;;;;;;;;;;5001553;28;20045;-96
2022/09/10 11:14:51;;;;;;;0.10;0.10;;;;;;;;;;5016672;28;20041;-96
2022/09/10 11:17:20;;;;;;;0.17;0.17;;;;;;;;;;5000588;28;20041;-95
2022/09/10 11:20:07;;;;;;;0.10;0.10;;;;;;;;;;5015257;28;20034;-94
2022/09/10 11:22:35;;;;;;;0.20;0.20;;;;;;;;;;5005879;28;20054;-94
2022/09/10 11:25:12;;;;;;;0.10;0.10;;;;;;;;;;4999864;28;20033;-93
2022/09/10 11:27:43;;;;;;;0.20;0.20;;;;;;;;;;5001392;28;20037;-92
2022/09/10 11:30:12;;;;;;;0.20;0.20;;;;;;;;;;4999502;28;20053;-93
2022/09/10 11:32:41;;;;;;;0.10;0.10;;;;;;;;;;4998062;28;20049;-93
2022/09/10 11:35:26;;;;;;;0.20;0.20;;;;;;;;;;5027429;28;20040;-93
2022/09/10 11:38:01;;;;;;;0.10;0.10;;;;;;;;;;5037559;28;20128;-90
2022/09/10 11:40:35;;;;;;;0.22;0.22;;;;;;;;;;5037032;28;20044;-91
2022/09/10 11:43:07;;;;;;;0.10;0.10;;;;;;;;;;5037508;28;20094;-91
2022/09/10 11:45:35;;;;;;;0.10;0.10;;;;;;;;;;5020329;28;20033;-90
2022/09/10 11:48:10;;;;;;;0.10;0.10;;;;;;;;;;5026813;28;20037;-91
2022/09/10 11:50:43;;;;;;;0.20;0.20;;;;;;;;;;5017288;28;20080;-90
2022/09/10 11:53:11;;;;;;;0.10;0.10;;;;;;;;;;5020870;28;20055;-92
2022/09/10 11:55:42;;;;;;;0.10;0.10;;;;;;;;;;5020986;28;20095;-91
2022/09/10 11:58:11;;;;;;;0.37;0.37;;;;;;;;;;5021321;28;20045;-93
2022/09/10 12:00:44;;;;;;;0.10;0.10;;;;;;;;;;5020411;28;20196;-93
2022/09/10 12:03:46;;;;;;;0.20;0.20;;;;;;;;;;5020856;28;20087;-92
2022/09/10 12:06:21;;;;;;;0.10;0.10;;;;;;;;;;4997165;28;20480;-93
2022/09/10 12:08:50;;;;;;;0.10;0.10;;;;;;;;;;4999358;28;20055;-93
2022/09/10 12:11:19;;;;;;;0.10;0.10;;;;;;;;;;5020821;28;20049;-93
2022/09/10 12:13:46;;;;;;;0.10;0.10;;;;;;;;;;5037251;28;20412;-92
2022/09/10 12:16:18;;;;;;;0.35;0.35;;;;;;;;;;5020423;28;20073;-93
2022/09/10 12:18:44;;;;;;;0.20;0.20;;;;;;;;;;5020785;28;20085;-92
2022/09/10 12:21:31;;;;;;;0.20;0.20;;;;;;;;;;5020363;28;20048;-93
2022/09/10 12:24:01;;;;;;;0.10;0.10;;;;;;;;;;5020754;28;20453;-93
2022/09/10 12:26:27;;;;;;;0.10;0.10;;;;;;;;;;5020495;28;20091;-93
2022/09/10 12:28:53;;;;;;;0.10;0.10;;;;;;;;;;5036597;28;20049;-93
2022/09/10 12:31:19;;;;;;;0.10;0.10;;;;;;;;;;5020477;28;20063;-92
2022/09/10 12:33:47;;;;;;;0.10;0.10;;;;;;;;;;5036679;28;20063;-93
2022/09/10 12:36:13;;;;;;;0.10;0.10;;;;;;;;;;5020657;28;20045;-94
2022/09/10 12:38:55;;;;;;;0.10;0.10;;;;;;;;;;5020123;28;20446;-93
2022/09/10 12:41:26;;;;;;;0.10;0.10;;;;;;;;;;5020000;28;20562;-93
2022/09/10 12:43:58;;;;;;;0.10;0.10;;;;;;;;;;5019809;28;20183;-93
2022/09/10 12:46:24;;;;;;;0.10;0.10;;;;;;;;;;5020137;28;20498;-94
2022/09/10 12:48:54;;;;;;;0.10;0.10;;;;;;;;;;5020394;28;20041;-93
2022/09/10 12:51:23;;;;;;;0.10;0.10;;;;;;;;;;5020027;28;20071;-93
2022/09/10 12:53:52;;;;;;;0.10;0.10;;;;;;;;;;5019704;28;20507;-93
2022/09/10 12:56:37;;;;;;;0.40;0.40;;;;;;;;;;5019505;28;20051;-94
2022/09/10 12:59:03;;;;;;;0.10;0.10;;;;;;;;;;5035837;28;20173;-92
2022/09/10 13:01:42;;;;;;;0.10;0.10;;;;;;;;;;5019606;28;20493;-93
2022/09/10 13:04:41;;;;;;;0.10;0.10;;;;;;;;;;5018512;28;20041;-94
2022/09/10 13:07:21;;;;;;;0.15;0.15;;;;;;;;;;5018933;28;20091;-93
2022/09/10 13:10:09;;;;;;;0.10;0.10;;;;;;;;;;5019877;28;20068;-94
2022/09/10 13:12:35;;;;;;;0.10;0.10;;;;;;;;;;5013096;28;20048;-93
2022/09/10 13:15:01;;;;;;;0.10;0.10;;;;;;;;;;5020065;28;20097;-93
2022/09/10 13:17:46;;;;;;;0.10;0.10;;;;;;;;;;5019785;28;20371;-93
2022/09/10 13:20:21;;;;;;;0.10;0.10;;;;;;;;;;5019049;28;20086;-93
2022/09/10 13:22:54;;;;;;;0.10;0.10;;;;;;;;;;5019256;28;20178;-93
2022/09/10 13:25:24;;;;;;;0.10;0.10;;;;;;;;;;5019484;28;20041;-93
2022/09/10 13:27:51;;;;;;;0.10;0.10;;;;;;;;;;5019473;28;20076;-92
2022/09/10 13:30:22;;;;;;;0.10;0.10;;;;;;;;;;5019122;28;20040;-93
2022/09/10 13:32:55;;;;;;;0.10;0.10;;;;;;;;;;5018875;28;20101;-93
2022/09/10 13:35:38;;;;;;;0.20;0.20;;;;;;;;;;5019314;28;20060;-94
2022/09/10 13:38:18;;;;;;;0.10;0.10;;;;;;;;;;5019111;28;20055;-93
2022/09/10 13:40:44;;;;;;;0.10;0.10;;;;;;;;;;5019169;28;20090;-93
2022/09/10 13:43:28;;;;;;;0.20;0.20;;;;;;;;;;5019016;28;20041;-94
2022/09/10 13:46:08;;;;;;;0.10;0.10;;;;;;;;;;5018975;28;20538;-93
2022/09/10 13:48:57;;;;;;;0.10;0.10;;;;;;;;;;5019245;28;20408;-93
2022/09/10 13:51:31;;;;;;;0.10;0.10;;;;;;;;;;5019003;28;20080;-94
2022/09/10 13:53:57;;;;;;;0.10;0.10;;;;;;;;;;5019117;28;20041;-94
2022/09/10 13:56:27;;;;;;;0.10;0.10;;;;;;;;;;5018972;28;20044;-93
2022/09/10 13:59:02;;;;;;;0.10;0.10;;;;;;;;;;5019077;28;20055;-94
2022/09/10 14:01:46;;;;;;;0.25;0.25;;;;;;;;;;5018639;28;20045;-93
2022/09/10 14:04:22;;;;;;;0.10;0.10;;;;;;;;;;5019205;28;20045;-94
2022/09/10 14:06:48;;;;;;;0.20;0.20;;;;;;;;;;5018672;28;20067;-93
2022/09/10 14:09:14;;;;;;;0.52;0.20;;;;;;;;;;5018762;28;20049;-93
2022/09/10 14:11:41;;;;;;;0.10;0.10;;;;;;;;;;5017745;28;20127;-94
2022/09/10 14:14:11;;;;;;;0.35;0.20;;;;;;;;;;5018538;28;20124;-94
2022/09/10 14:16:45;;;;;;;0.10;0.10;;;;;;;;;;5018806;28;20040;-93
2022/09/10 14:19:16;;;;;;;0.20;0.20;;;;;;;;;;5018667;28;20515;-93
2022/09/10 14:21:42;;;;;;;0.10;0.10;;;;;;;;;;5018414;28;20040;-93
2022/09/10 14:24:27;;;;;;;0.10;0.10;;;;;;;;;;5018271;28;20453;-93
2022/09/10 14:27:06;;;;;;;0.20;0.20;;;;;;;;;;5018549;28;20048;-93
2022/09/10 14:29:32;;;;;;;0.10;0.10;;;;;;;;;;5018708;28;20052;-93
2022/09/10 14:32:15;;;;;;;0.10;0.10;;;;;;;;;;5018213;28;20055;-93
2022/09/10 14:34:41;;;;;;;0.20;0.20;;;;;;;;;;5035078;28;20102;-93
2022/09/10 14:37:28;;;;;;;0.20;0.20;;;;;;;;;;5018597;28;20040;-94
2022/09/10 14:39:55;;;;;;;0.20;0.20;;;;;;;;;;5018000;28;20040;-94
2022/09/10 14:42:25;;;;;;;0.10;0.10;;;;;;;;;;5034984;28;20048;-93
2022/09/10 14:44:52;;;;;;;0.10;0.10;;;;;;;;;;5018347;28;20392;-93
2022/09/10 14:47:23;;;;;;;0.20;0.20;;;;;;;;;;5034160;28;20041;-94
2022/09/10 14:49:51;;;;;;;0.13;0.13;;;;;;;;;;5018489;28;20037;-93
2022/09/10 14:52:17;;;;;;;0.10;0.10;;;;;;;;;;5017973;28;20041;-93
2022/09/10 14:54:43;;;;;;;0.20;0.20;;;;;;;;;;5018048;28;20044;-93
2022/09/10 14:57:13;;;;;;;0.10;0.10;;;;;;;;;;5018039;28;20178;-94
2022/09/10 14:59:40;;;;;;;0.20;0.20;;;;;;;;;;5018024;28;20124;-93
2022/09/10 15:02:14;;;;;;;0.20;0.20;;;;;;;;;;5017599;28;20045;-93
2022/09/10 15:04:40;;;;;;;0.10;0.10;;;;;;;;;;5018216;28;20037;-94
2022/09/10 15:07:08;;;;;;;0.10;0.10;;;;;;;;;;5017690;28;20045;-93
2022/09/10 15:09:35;;;;;;;0.10;0.10;;;;;;;;;;5017846;28;20045;-93
2022/09/10 15:12:03;;;;;;;0.17;0.17;;;;;;;;;;5017576;28;20567;-93
2022/09/10 15:14:31;;;;;;;0.10;0.10;;;;;;;;;;5017485;28;20163;-93
2022/09/10 15:16:57;;;;;;;0.10;0.10;;;;;;;;;;5017373;28;20136;-93
2022/09/10 15:19:23;;;;;;;0.20;0.20;;;;;;;;;;5017511;28;20127;-93
2022/09/10 15:21:49;;;;;;;0.10;0.10;;;;;;;;;;5017360;28;20108;-92
2022/09/10 15:24:20;;;;;;;0.20;0.20;;;;;;;;;;5017792;28;20484;-93
2022/09/10 15:26:46;;;;;;;0.10;0.10;;;;;;;;;;5019773;28;20132;-93
2022/09/10 15:29:13;;;;;;;0.15;0.15;;;;;;;;;;5021703;28;20037;-93
2022/09/10 15:31:39;;;;;;;0.10;0.10;;;;;;;;;;5021064;28;20049;-93
2022/09/10 15:34:05;;;;;;;0.10;0.10;;;;;;;;;;5021263;28;20091;-93
2022/09/10 15:36:32;;;;;;;0.20;0.20;;;;;;;;;;5037955;28;20044;-93
2022/09/10 15:38:58;;;;;;;0.10;0.10;;;;;;;;;;5021244;28;20037;-93
2022/09/10 15:41:25;;;;;;;0.10;0.10;;;;;;;;;;5021120;28;20075;-93
2022/09/10 15:43:51;;;;;;;0.10;0.10;;;;;;;;;;5021320;28;20049;-93